Time,TemperatureF,DewpointF,PressureIn,WindDirection,WindDirectionDegrees,WindSpeedMPH,WindSpeedGustMPH,Humidity,HourlyPrecipIn,Conditions,Clouds,dailyrainin,SoftwareType,DateUTC
2013-07-21 00:00:00,79.0,67.0,29.87,WSW,248,0.0,2.0,66,0.00,,,0.00,weatherlink.com 1.10,2013-07-21 04:00:00,
2013-07-21 00:15:00,78.2,66.0,29.87,WSW,248,0.0,2.0,67,0.00,,,0.00,weatherlink.com 1.10,2013-07-21 04:15:00,
2013-07-21 00:30:00,76.7,67.0,29.88,WSW,248,0.0,0.0,71,0.00,,,0.00,weatherlink.com 1.10,2013-07-21 04:30:00,
2013-07-21 00:45:00,76.9,66.0,29.87,WSW,250,1.0,2.0,70,0.00,,,0.00,weatherlink.com 1.10,2013-07-21 04:45:00,
2013-07-21 01:01:00,77.2,66.0,29.87,WSW,240,1.0,5.0,69,0.00,,,0.00,weatherlink.com 1.10,2013-07-21 05:01:00,
2013-07-21 01:17:00,76.9,66.0,29.87,WSW,242,0.0,1.0,70,0.00,,,0.00,weatherlink.com 1.10,2013-07-21 05:17:00,
2013-07-21 01:32:00,75.3,67.0,29.88,WSW,242,0.0,0.0,74,0.00,,,0.00,weatherlink.com 1.10,2013-07-21 05:32:00,
2013-07-21 01:46:00,74.3,67.0,29.88,WSW,242,0.0,0.0,77,0.00,,,0.00,weatherlink.com 1.10,2013-07-21 05:46:00,
2013-07-21 02:02:00,74.0,67.0,29.89,WSW,242,0.0,0.0,78,0.00,,,0.00,weatherlink.com 1.10,2013-07-21 06:02:00,
2013-07-21 02:19:00,74.0,67.0,29.89,WSW,242,0.0,0.0,78,0.00,,,0.00,weatherlink.com 1.10,2013-07-21 06:19:00,
2013-07-21 02:33:00,73.9,67.0,29.89,WSW,242,0.0,0.0,78,0.00,,,0.00,weatherlink.com 1.10,2013-07-21 06:33:00,
2013-07-21 02:48:00,73.5,67.0,29.89,WSW,242,0.0,0.0,80,0.00,,,0.00,weatherlink.com 1.10,2013-07-21 06:48:00,
2013-07-21 03:03:00,73.3,67.0,29.88,WSW,242,0.0,0.0,80,0.00,,,0.00,weatherlink.com 1.10,2013-07-21 07:03:00,
2013-07-21 03:18:00,73.6,67.0,29.88,WSW,242,0.0,0.0,79,0.00,,,0.00,weatherlink.com 1.10,2013-07-21 07:18:00,
2013-07-21 03:35:00,72.8,67.0,29.88,WSW,242,0.0,0.0,82,0.00,,,0.00,weatherlink.com 1.10,2013-07-21 07:35:00,
2013-07-21 03:50:00,73.5,67.0,29.88,WSW,238,0.0,3.0,80,0.00,,,0.00,weatherlink.com 1.10,2013-07-21 07:50:00,
2013-07-21 04:05:00,73.7,67.0,29.88,SW,234,0.0,1.0,79,0.00,,,0.00,weatherlink.com 1.10,2013-07-21 08:05:00,
2013-07-21 04:20:00,73.3,67.0,29.87,SW,234,0.0,0.0,80,0.00,,,0.00,weatherlink.com 1.10,2013-07-21 08:20:00,
2013-07-21 04:35:00,73.1,67.0,29.88,SW,234,0.0,0.0,80,0.00,,,0.00,weatherlink.com 1.10,2013-07-21 08:35:00,
2013-07-21 04:51:00,73.0,67.0,29.88,SW,235,0.0,0.0,80,0.00,,,0.00,weatherlink.com 1.10,2013-07-21 08:51:00,
2013-07-21 05:06:00,73.7,66.0,29.88,WSW,255,0.0,3.0,78,0.00,,,0.00,weatherlink.com 1.10,2013-07-21 09:06:00,
2013-07-21 05:21:00,74.1,66.0,29.89,West,259,0.0,2.0,77,0.00,,,0.00,weatherlink.com 1.10,2013-07-21 09:21:00,
2013-07-21 05:36:00,74.6,67.0,29.89,WNW,296,0.0,3.0,76,0.00,,,0.00,weatherlink.com 1.10,2013-07-21 09:36:00,
2013-07-21 05:52:00,74.5,67.0,29.90,WNW,290,4.0,5.0,77,0.00,,,0.00,weatherlink.com 1.10,2013-07-21 09:52:00,
2013-07-21 06:08:00,74.5,67.0,29.90,NW,313,0.0,4.0,77,0.00,,,0.00,weatherlink.com 1.10,2013-07-21 10:08:00,
2013-07-21 06:23:00,74.6,67.0,29.90,NW,323,0.0,4.0,77,0.00,,,0.00,weatherlink.com 1.10,2013-07-21 10:23:00,
2013-07-21 06:38:00,74.3,67.0,29.91,NW,315,1.0,4.0,78,0.00,,,0.00,weatherlink.com 1.10,2013-07-21 10:38:00,
2013-07-21 06:53:00,74.1,67.0,29.91,NNW,344,0.0,3.0,79,0.00,,,0.00,weatherlink.com 1.10,2013-07-21 10:53:00,
2013-07-21 07:08:00,74.2,67.0,29.91,West,273,2.0,3.0,79,0.00,,,0.00,weatherlink.com 1.10,2013-07-21 11:08:00,
2013-07-21 07:25:00,74.0,67.0,29.91,WNW,298,0.0,4.0,79,0.00,,,0.00,weatherlink.com 1.10,2013-07-21 11:25:00,
2013-07-21 07:40:00,73.6,67.0,29.91,NNE,12,1.0,3.0,81,0.00,,,0.00,weatherlink.com 1.10,2013-07-21 11:40:00,
2013-07-21 07:55:00,74.0,68.0,29.93,WSW,251,4.0,6.0,81,0.00,,,0.00,weatherlink.com 1.10,2013-07-21 11:55:00,
2013-07-21 08:10:00,74.3,68.0,29.93,WNW,286,3.0,5.0,81,0.00,,,0.00,weatherlink.com 1.10,2013-07-21 12:10:00,
2013-07-21 08:27:00,74.6,68.0,29.93,WSW,250,3.0,5.0,81,0.00,,,0.00,weatherlink.com 1.10,2013-07-21 12:27:00,
2013-07-21 08:42:00,76.4,70.0,29.93,NNW,331,1.0,4.0,80,0.00,,,0.00,weatherlink.com 1.10,2013-07-21 12:42:00,
2013-07-21 08:57:00,78.5,70.0,29.93,WNW,291,6.0,7.0,74,0.00,,,0.00,weatherlink.com 1.10,2013-07-21 12:57:00,
2013-07-21 09:11:00,78.9,70.0,29.92,WSW,258,5.0,9.0,74,0.00,,,0.00,weatherlink.com 1.10,2013-07-21 13:11:00,
2013-07-21 09:27:00,78.4,70.0,29.92,ENE,73,2.0,7.0,75,0.00,,,0.00,weatherlink.com 1.10,2013-07-21 13:27:00,
2013-07-21 09:43:00,77.5,70.0,29.93,ENE,74,2.0,8.0,77,0.00,,,0.00,weatherlink.com 1.10,2013-07-21 13:43:00,
2013-07-21 09:58:00,77.1,69.0,29.94,West,279,2.0,5.0,77,0.00,,,0.00,weatherlink.com 1.10,2013-07-21 13:58:00,
2013-07-21 10:13:00,77.1,69.0,29.94,WNW,286,1.0,5.0,77,0.00,,,0.00,weatherlink.com 1.10,2013-07-21 14:13:00,
2013-07-21 10:28:00,78.2,70.0,29.94,NNW,343,1.0,5.0,76,0.00,,,0.00,weatherlink.com 1.10,2013-07-21 14:28:00,
2013-07-21 10:43:00,80.5,70.0,29.93,SSE,167,0.0,3.0,71,0.00,,,0.00,weatherlink.com 1.10,2013-07-21 14:43:00,
2013-07-21 11:00:00,79.9,71.0,29.94,WSW,245,1.0,6.0,73,0.00,,,0.00,weatherlink.com 1.10,2013-07-21 15:00:00,
2013-07-21 11:14:00,81.0,71.0,29.94,ENE,64,2.0,5.0,72,0.00,,,0.00,weatherlink.com 1.10,2013-07-21 15:14:00,
2013-07-21 11:30:00,81.8,71.0,29.95,West,273,1.0,4.0,69,0.00,,,0.00,weatherlink.com 1.10,2013-07-21 15:30:00,
2013-07-21 11:45:00,83.0,72.0,29.95,East,92,1.0,3.0,70,0.00,,,0.00,weatherlink.com 1.10,2013-07-21 15:45:00,
2013-07-21 12:01:00,82.7,70.0,29.95,West,279,3.0,5.0,65,0.00,,,0.00,weatherlink.com 1.10,2013-07-21 16:01:00,
2013-07-21 12:16:00,83.4,70.0,29.94,West,265,3.0,6.0,64,0.00,,,0.00,weatherlink.com 1.10,2013-07-21 16:16:00,
2013-07-21 12:32:00,84.5,70.0,29.94,West,265,2.0,4.0,62,0.00,,,0.00,weatherlink.com 1.10,2013-07-21 16:32:00,
2013-07-21 12:47:00,84.2,70.0,29.94,NE,51,2.0,4.0,62,0.00,,,0.00,weatherlink.com 1.10,2013-07-21 16:47:00,
2013-07-21 13:02:00,85.0,71.0,29.94,East,79,0.0,4.0,63,0.00,,,0.00,weatherlink.com 1.10,2013-07-21 17:02:00,
2013-07-21 13:18:00,83.7,71.0,29.94,ENE,75,0.0,2.0,65,0.00,,,0.00,weatherlink.com 1.10,2013-07-21 17:18:00,
2013-07-21 13:33:00,83.9,70.0,29.94,ENE,62,0.0,4.0,63,0.00,,,0.00,weatherlink.com 1.10,2013-07-21 17:33:00,
2013-07-21 13:48:00,84.1,70.0,29.94,NE,36,2.0,2.0,63,0.00,,,0.00,weatherlink.com 1.10,2013-07-21 17:48:00,
2013-07-21 14:03:00,83.3,70.0,29.94,NE,41,0.0,3.0,64,0.00,,,0.00,weatherlink.com 1.10,2013-07-21 18:03:00,
2013-07-21 14:18:00,83.1,69.0,29.94,WSW,244,0.0,3.0,63,0.00,,,0.00,weatherlink.com 1.10,2013-07-21 18:18:00,
2013-07-21 14:34:00,83.8,69.0,29.94,NW,308,0.0,4.0,62,0.00,,,0.00,weatherlink.com 1.10,2013-07-21 18:34:00,
2013-07-21 14:50:00,84.9,70.0,29.94,NW,316,1.0,4.0,61,0.00,,,0.00,weatherlink.com 1.10,2013-07-21 18:50:00,
2013-07-21 15:05:00,84.7,69.0,29.93,WNW,294,2.0,4.0,59,0.00,,,0.00,weatherlink.com 1.10,2013-07-21 19:05:00,
2013-07-21 15:20:00,85.4,68.0,29.93,NW,309,0.0,3.0,57,0.00,,,0.00,weatherlink.com 1.10,2013-07-21 19:20:00,
2013-07-21 15:36:00,83.9,69.0,29.93,WSW,250,0.0,3.0,62,0.00,,,0.00,weatherlink.com 1.10,2013-07-21 19:36:00,
2013-07-21 15:51:00,83.2,70.0,29.92,SW,222,1.0,3.0,64,0.00,,,0.00,weatherlink.com 1.10,2013-07-21 19:51:00,
2013-07-21 16:06:00,83.6,71.0,29.91,SW,219,1.0,1.0,65,0.00,,,0.00,weatherlink.com 1.10,2013-07-21 20:06:00,
2013-07-21 16:22:00,83.5,71.0,29.92,SW,228,0.0,3.0,65,0.00,,,0.00,weatherlink.com 1.10,2013-07-21 20:22:00,
2013-07-21 16:37:00,84.9,71.0,29.91,SW,226,0.0,2.0,63,0.00,,,0.00,weatherlink.com 1.10,2013-07-21 20:37:00,
2013-07-21 16:52:00,84.3,72.0,29.91,West,261,0.0,4.0,66,0.00,,,0.00,weatherlink.com 1.10,2013-07-21 20:52:00,
2013-07-21 17:08:00,83.7,71.0,29.91,WSW,247,0.0,2.0,66,0.00,,,0.00,weatherlink.com 1.10,2013-07-21 21:08:00,
2013-07-21 17:24:00,83.8,71.0,29.92,SSW,200,0.0,2.0,65,0.00,,,0.00,weatherlink.com 1.10,2013-07-21 21:24:00,
2013-07-21 17:38:00,84.7,71.0,29.91,South,182,0.0,2.0,64,0.00,,,0.00,weatherlink.com 1.10,2013-07-21 21:38:00,
2013-07-21 17:53:00,84.5,71.0,29.91,SW,221,1.0,4.0,64,0.00,,,0.00,weatherlink.com 1.10,2013-07-21 21:53:00,
2013-07-21 18:09:00,84.1,70.0,29.91,SSW,205,0.0,3.0,63,0.00,,,0.00,weatherlink.com 1.10,2013-07-21 22:09:00,
2013-07-21 18:25:00,83.6,71.0,29.90,SSW,205,0.0,1.0,66,0.00,,,0.00,weatherlink.com 1.10,2013-07-21 22:25:00,
2013-07-21 18:40:00,83.0,71.0,29.89,SSW,207,0.0,0.0,68,0.00,,,0.00,weatherlink.com 1.10,2013-07-21 22:40:00,
2013-07-21 18:55:00,82.8,71.0,29.89,SSW,205,0.0,0.0,67,0.00,,,0.00,weatherlink.com 1.10,2013-07-21 22:55:00,
2013-07-21 19:10:00,82.5,71.0,29.90,SSW,205,0.0,2.0,68,0.00,,,0.00,weatherlink.com 1.10,2013-07-21 23:10:00,
2013-07-21 19:25:00,82.2,71.0,29.90,SSW,199,0.0,2.0,68,0.00,,,0.00,weatherlink.com 1.10,2013-07-21 23:25:00,
2013-07-21 19:40:00,81.9,72.0,29.91,SSW,198,0.0,1.0,71,0.00,,,0.00,weatherlink.com 1.10,2013-07-21 23:40:00,
2013-07-21 19:57:00,81.3,71.0,29.92,SSW,196,0.0,1.0,71,0.00,,,0.00,weatherlink.com 1.10,2013-07-21 23:57:00,
2013-07-21 20:11:00,80.9,71.0,29.92,SSW,196,0.0,1.0,72,0.00,,,0.00,weatherlink.com 1.10,2013-07-22 00:11:00,
2013-07-21 20:27:00,80.0,71.0,29.92,SSW,196,0.0,0.0,75,0.00,,,0.00,weatherlink.com 1.10,2013-07-22 00:27:00,
2013-07-21 20:41:00,78.9,72.0,29.92,SSW,196,0.0,0.0,78,0.00,,,0.00,weatherlink.com 1.10,2013-07-22 00:41:00,
2013-07-21 20:57:00,78.4,71.0,29.92,SSW,196,0.0,0.0,79,0.00,,,0.00,weatherlink.com 1.10,2013-07-22 00:57:00,
2013-07-21 21:14:00,78.1,72.0,29.93,SSW,196,0.0,1.0,82,0.00,,,0.00,weatherlink.com 1.10,2013-07-22 01:14:00,
2013-07-21 21:28:00,77.3,73.0,29.93,SSW,196,0.0,1.0,85,0.00,,,0.00,weatherlink.com 1.10,2013-07-22 01:28:00,
2013-07-21 21:43:00,76.6,72.0,29.93,SSW,196,0.0,0.0,86,0.00,,,0.00,weatherlink.com 1.10,2013-07-22 01:43:00,
2013-07-21 21:58:00,76.0,72.0,29.93,SSW,196,0.0,1.0,87,0.00,,,0.00,weatherlink.com 1.10,2013-07-22 01:58:00,
2013-07-21 22:15:00,75.6,72.0,29.93,SSW,196,0.0,0.0,87,0.00,,,0.00,weatherlink.com 1.10,2013-07-22 02:15:00,
2013-07-21 22:30:00,75.5,71.0,29.93,SSW,196,0.0,0.0,86,0.00,,,0.00,weatherlink.com 1.10,2013-07-22 02:30:00,
2013-07-21 22:45:00,75.4,71.0,29.94,SSW,196,0.0,0.0,86,0.00,,,0.00,weatherlink.com 1.10,2013-07-22 02:45:00,
2013-07-21 23:00:00,75.0,71.0,29.95,SSW,196,0.0,0.0,87,0.00,,,0.00,weatherlink.com 1.10,2013-07-22 03:00:00,
2013-07-21 23:15:00,74.6,71.0,29.95,SSW,196,0.0,0.0,87,0.00,,,0.00,weatherlink.com 1.10,2013-07-22 03:15:00,
2013-07-21 23:32:00,74.3,71.0,29.95,SSW,196,0.0,0.0,88,0.00,,,0.00,weatherlink.com 1.10,2013-07-22 03:32:00,
2013-07-21 23:47:00,74.4,70.0,29.95,SSW,196,0.0,0.0,87,0.00,,,0.00,weatherlink.com 1.10,2013-07-22 03:47:00,